createdAt,value
2023-02-17T00:00:32.163Z,100245.69
2023-02-17T00:02:39.271Z,100180.59
2023-02-17T00:04:44.613Z,100207.72
2023-02-17T00:06:47.706Z,100187.94
2023-02-17T00:08:53.131Z,100230.22
2023-02-17T00:10:58.917Z,100181.28
2023-02-17T00:13:02.605Z,100202.88
2023-02-17T00:15:05.797Z,100207.25
2023-02-17T00:17:08.379Z,100215.66
2023-02-17T00:19:25.300Z,100190.94
2023-02-17T00:21:32.333Z,100177.47
2023-02-17T00:23:34.525Z,100147.59
2023-02-17T00:25:39.603Z,100166.69
2023-02-17T00:27:42.058Z,100150.91
2023-02-17T00:29:44.678Z,100184.19
2023-02-17T00:31:47.586Z,100180.00
2023-02-17T00:33:50.402Z,100169.22
2023-02-17T00:35:52.862Z,100189.19
2023-02-17T00:37:55.055Z,100164.41
2023-02-17T00:39:57.525Z,100194.22
2023-02-17T00:42:00.103Z,100199.81
2023-02-17T00:44:05.163Z,100109.94
2023-02-17T00:46:07.548Z,100214.91
2023-02-17T00:48:11.057Z,100173.34
2023-02-17T00:50:13.962Z,100184.97
2023-02-17T00:52:16.322Z,100147.59
2023-02-17T00:54:19.879Z,100179.22
2023-02-17T00:56:22.224Z,100145.31
2023-02-17T00:58:24.863Z,100212.69
2023-02-17T01:00:27.116Z,100190.16
2023-02-17T01:02:29.457Z,100122.53
2023-02-17T01:04:32.376Z,100176.63
2023-02-17T01:06:37.683Z,100187.31
2023-02-17T01:08:41.703Z,100229.25
2023-02-17T01:10:46.260Z,100190.91
2023-02-17T01:12:49.038Z,100136.91
2023-02-17T01:14:51.197Z,100173.47
2023-02-17T01:16:53.645Z,100161.78
2023-02-17T01:18:56.247Z,100168.44
2023-02-17T01:20:58.623Z,100173.34
2023-02-17T01:23:02.830Z,100197.63
2023-02-17T01:25:06.333Z,100192.66
2023-02-17T01:27:09.801Z,100163.25
2023-02-17T01:29:12.333Z,100178.13
2023-02-17T01:31:15.803Z,100161.69
2023-02-17T01:33:18.718Z,100201.59
2023-02-17T01:35:20.975Z,100150.78
2023-02-17T01:37:23.844Z,100190.38
2023-02-17T01:39:26.122Z,100188.41
2023-02-17T01:41:29.268Z,100205.22
2023-02-17T01:43:31.944Z,100174.56
2023-02-17T01:45:51.034Z,100209.53
2023-02-17T01:48:11.559Z,100227.88
2023-02-17T01:50:15.101Z,100187.69
2023-02-17T01:52:23.279Z,100177.28
2023-02-17T01:54:33.806Z,100203.91
2023-02-17T01:56:40.373Z,100174.66
2023-02-17T01:58:47.453Z,100179.69
2023-02-17T02:00:53.538Z,100192.16
2023-02-17T02:02:56.291Z,100150.41
2023-02-17T02:04:59.101Z,100155.22
2023-02-17T02:07:03.542Z,100155.00
2023-02-17T02:09:09.982Z,100170.75
2023-02-17T02:11:12.321Z,100147.34
2023-02-17T02:13:14.598Z,100139.66
2023-02-17T02:15:26.675Z,100163.00
2023-02-17T02:18:15.829Z,100176.19
2023-02-17T02:20:34.251Z,100174.56
2023-02-17T02:22:58.138Z,100180.56
2023-02-17T02:25:29.027Z,100169.25
2023-02-17T02:27:40.120Z,100172.59
2023-02-17T02:30:17.558Z,100158.94
2023-02-17T02:32:44.178Z,100115.66
2023-02-17T02:34:57.529Z,100138.22
2023-02-17T02:37:11.064Z,100128.25
2023-02-17T02:39:24.997Z,100155.44
2023-02-17T02:41:42.984Z,100066.44
2023-02-17T02:43:49.469Z,100094.47
2023-02-17T02:45:52.325Z,100071.84
2023-02-17T02:47:57.810Z,100098.34
2023-02-17T02:50:03.667Z,100108.16
2023-02-17T02:52:10.840Z,100113.66
2023-02-17T02:54:26.147Z,100140.19
2023-02-17T02:56:46.392Z,100129.06
2023-02-17T02:59:26.721Z,100060.50
2023-02-17T03:01:51.304Z,100134.25
2023-02-17T03:04:09.387Z,100122.22
2023-02-17T03:06:22.936Z,100125.63
2023-02-17T03:08:33.155Z,100023.25
2023-02-17T03:10:35.708Z,100083.13
2023-02-17T03:12:39.513Z,100079.66
2023-02-17T03:14:43.814Z,100072.94
2023-02-17T03:16:47.318Z,100106.72
2023-02-17T03:18:49.795Z,100079.09
2023-02-17T03:20:57.021Z,100090.78
2023-02-17T03:23:00.907Z,100077.34
2023-02-17T03:25:04.746Z,100099.97
2023-02-17T03:27:07.041Z,100050.63
2023-02-17T03:29:09.624Z,100104.63
2023-02-17T03:31:12.626Z,100093.81
2023-02-17T03:33:15.777Z,100103.78
2023-02-17T03:35:18.195Z,100063.91
2023-02-17T03:37:21.159Z,100074.56
2023-02-17T03:39:23.697Z,100049.63
2023-02-17T03:41:26.179Z,100077.00
2023-02-17T03:43:28.840Z,100070.31
2023-02-17T03:45:32.264Z,100083.34
2023-02-17T03:47:34.466Z,100020.09
2023-02-17T03:49:36.793Z,100028.28
2023-02-17T03:51:39.542Z,100054.28
2023-02-17T03:53:42.614Z,100058.41
2023-02-17T03:55:45.012Z,100042.41
2023-02-17T03:57:47.215Z,100085.50
2023-02-17T03:59:49.582Z,100064.88
2023-02-17T04:01:51.931Z,100058.88
2023-02-17T04:03:54.263Z,99994.94
2023-02-17T04:05:56.827Z,100051.44
2023-02-17T04:07:59.261Z,100062.97
2023-02-17T04:10:03.260Z,100053.69
2023-02-17T04:12:07.661Z,100061.75
2023-02-17T04:14:10.182Z,100047.66
2023-02-17T04:16:13.056Z,100084.22
2023-02-17T04:18:16.389Z,100065.06
2023-02-17T04:20:18.679Z,100058.66
2023-02-17T04:22:21.037Z,100081.09
2023-02-17T04:24:24.257Z,100082.59
2023-02-17T04:26:26.468Z,100017.09
2023-02-17T04:28:28.901Z,100086.00
2023-02-17T04:30:33.243Z,100055.34
2023-02-17T04:32:35.647Z,100066.63
2023-02-17T04:34:38.672Z,100047.38
2023-02-17T04:36:42.871Z,100024.22
2023-02-17T04:38:46.604Z,100046.59
2023-02-17T04:40:49.260Z,100061.31
2023-02-17T04:42:51.731Z,100024.78
2023-02-17T04:44:54.411Z,100060.44
2023-02-17T04:46:56.633Z,99988.84
2023-02-17T04:48:59.391Z,99989.63
2023-02-17T04:51:01.916Z,100020.91
2023-02-17T04:53:04.406Z,100051.56
2023-02-17T04:55:07.217Z,100028.34
2023-02-17T04:57:09.401Z,100028.13
2023-02-17T04:59:11.730Z,99989.97
2023-02-17T05:01:14.334Z,100019.84
2023-02-17T05:03:18.349Z,100000.63
2023-02-17T05:05:21.576Z,100000.47
2023-02-17T05:07:24.812Z,100020.63
2023-02-17T05:09:27.553Z,100000.41
2023-02-17T05:11:32.136Z,100006.28
2023-02-17T05:13:34.395Z,100019.44
2023-02-17T05:15:36.871Z,100035.06
2023-02-17T05:17:39.931Z,100045.97
2023-02-17T05:19:42.733Z,100043.41
2023-02-17T05:21:45.065Z,100028.25
2023-02-17T05:23:47.892Z,100005.03
2023-02-17T05:25:50.238Z,99994.84
2023-02-17T05:27:52.386Z,99960.78
2023-02-17T05:29:54.998Z,100004.69
2023-02-17T05:31:57.401Z,100027.88
2023-02-17T05:33:59.678Z,99994.84
2023-02-17T05:36:05.550Z,100007.03
2023-02-17T05:38:08.244Z,100015.09
2023-02-17T05:40:12.797Z,100010.25
2023-02-17T05:42:15.013Z,100016.03
2023-02-17T05:44:17.749Z,100014.13
2023-02-17T05:46:20.045Z,100012.31
2023-02-17T05:48:22.534Z,99998.22
2023-02-17T05:50:24.944Z,100043.63
2023-02-17T05:52:27.609Z,99954.53
2023-02-17T05:54:30.431Z,99990.44
2023-02-17T05:56:33.064Z,100024.53
2023-02-17T05:58:35.429Z,99996.94
2023-02-17T06:00:37.670Z,99978.09
2023-02-17T06:02:39.996Z,100014.81
2023-02-17T06:04:42.365Z,99930.38
2023-02-17T06:06:45.099Z,99979.44
2023-02-17T06:08:47.954Z,99979.53
2023-02-17T06:10:50.192Z,99976.63
2023-02-17T06:12:53.060Z,99998.63
2023-02-17T06:14:55.201Z,99967.13
2023-02-17T06:17:00.679Z,99999.28
2023-02-17T06:19:05.542Z,99989.44
2023-02-17T06:21:08.181Z,99939.72
2023-02-17T06:23:11.713Z,99971.84
2023-02-17T06:25:14.270Z,99983.25
2023-02-17T06:27:16.642Z,99963.25
2023-02-17T06:29:18.980Z,99979.00
2023-02-17T06:31:21.397Z,99963.94
2023-02-17T06:33:23.638Z,99986.31
2023-02-17T06:35:26.422Z,99981.91
2023-02-17T06:37:28.860Z,99961.03
2023-02-17T06:39:32.323Z,99965.38
2023-02-17T06:41:34.650Z,99926.88
2023-02-17T06:43:37.254Z,99973.13
2023-02-17T06:45:40.124Z,99978.06
2023-02-17T06:47:42.408Z,99967.50
2023-02-17T06:49:44.629Z,99956.47
2023-02-17T06:51:46.923Z,99943.72
2023-02-17T06:53:49.423Z,99960.22
2023-02-17T06:55:51.916Z,99946.84
2023-02-17T06:57:54.116Z,99982.38
2023-02-17T06:59:56.536Z,99978.19
2023-02-17T07:02:01.095Z,99971.34
2023-02-17T07:04:05.074Z,99949.53
2023-02-17T07:06:07.460Z,99965.75
2023-02-17T07:08:10.132Z,99943.34
2023-02-17T07:10:13.038Z,99989.72
2023-02-17T07:12:15.961Z,99955.69
2023-02-17T07:14:18.281Z,99959.56
2023-02-17T07:16:21.337Z,99974.13
2023-02-17T07:18:24.027Z,99939.31
2023-02-17T07:20:26.473Z,99971.13
2023-02-17T07:22:28.768Z,99975.78
2023-02-17T07:24:31.588Z,99972.22
2023-02-17T07:26:37.937Z,99938.09
2023-02-17T07:28:41.243Z,99979.13
2023-02-17T07:30:44.739Z,99937.59
2023-02-17T07:32:47.077Z,99946.69
2023-02-17T07:34:49.671Z,99984.50
2023-02-17T07:36:52.125Z,99932.19
2023-02-17T07:38:54.857Z,99969.38
2023-02-17T07:40:57.272Z,99954.78
2023-02-17T07:43:00.218Z,99981.97
2023-02-17T07:45:02.670Z,99930.56
2023-02-17T07:47:05.388Z,99893.66
2023-02-17T07:49:07.990Z,99963.38
2023-02-17T07:51:13.117Z,99928.09
2023-02-17T07:53:15.881Z,99937.91
2023-02-17T07:55:18.335Z,99944.81
2023-02-17T07:57:21.242Z,99933.00
2023-02-17T07:59:23.484Z,99940.00
2023-02-17T08:01:27.234Z,99976.72
2023-02-17T08:03:29.402Z,99920.66
2023-02-17T08:05:31.932Z,99954.72
2023-02-17T08:07:34.312Z,99963.84
2023-02-17T08:09:55.325Z,99963.19
2023-02-17T08:12:16.149Z,99938.84
2023-02-17T08:14:20.834Z,99930.75
2023-02-17T08:16:23.392Z,99968.63
2023-02-17T08:18:25.802Z,99948.69
2023-02-17T08:20:28.786Z,99954.66
2023-02-17T08:22:31.149Z,99966.88
2023-02-17T08:24:33.621Z,99943.34
2023-02-17T08:26:36.564Z,99938.03
2023-02-17T08:28:38.915Z,99934.72
2023-02-17T08:30:41.484Z,99944.31
2023-02-17T08:32:47.846Z,99937.59
2023-02-17T08:34:50.650Z,99945.06
2023-02-17T08:36:52.931Z,99959.53
2023-02-17T08:38:56.628Z,99949.50
2023-02-17T08:40:59.399Z,99926.56
2023-02-17T08:43:03.575Z,99942.66
2023-02-17T08:45:06.854Z,99969.00
2023-02-17T08:47:10.844Z,99943.72
2023-02-17T08:49:13.819Z,99903.91
2023-02-17T08:51:23.797Z,99968.34
2023-02-17T08:53:28.289Z,99933.94
2023-02-17T08:55:43.993Z,99944.31
2023-02-17T08:57:51.261Z,99946.31
2023-02-17T08:59:54.323Z,99932.81
2023-02-17T09:01:57.292Z,99915.97
2023-02-17T09:04:01.846Z,99946.88
2023-02-17T09:06:05.087Z,99942.28
2023-02-17T09:08:08.260Z,99936.41
2023-02-17T09:10:15.312Z,99923.47
2023-02-17T09:12:17.721Z,99953.13
2023-02-17T09:14:19.907Z,99921.38
2023-02-17T09:16:24.783Z,99944.69
2023-02-17T09:18:28.229Z,99932.09
2023-02-17T09:20:30.635Z,99913.69
2023-02-17T09:22:33.258Z,99913.50
2023-02-17T09:24:38.907Z,99921.94
2023-02-17T09:26:42.926Z,99952.22
2023-02-17T09:28:45.923Z,99918.19
2023-02-17T09:30:48.481Z,99934.22
2023-02-17T09:32:51.376Z,99901.31
2023-02-17T09:34:54.997Z,99922.69
2023-02-17T09:36:57.595Z,99934.22
2023-02-17T09:39:02.173Z,99943.72
2023-02-17T09:41:16.639Z,99939.84
2023-02-17T09:43:26.966Z,99886.94
2023-02-17T09:45:35.468Z,99934.72
2023-02-17T09:47:44.005Z,99932.41
2023-02-17T09:49:51.891Z,99926.84
2023-02-17T09:52:18.608Z,99911.13
2023-02-17T09:54:28.705Z,99919.88
2023-02-17T09:56:35.909Z,99907.38
2023-02-17T09:58:42.960Z,99917.84
2023-02-17T10:00:49.227Z,99913.63
2023-02-17T10:03:19.578Z,99903.41
2023-02-17T10:05:26.228Z,99911.59
2023-02-17T10:07:40.142Z,99940.19
2023-02-17T10:09:51.343Z,99901.06
2023-02-17T10:12:10.393Z,99930.19
2023-02-17T10:14:31.314Z,99922.56
2023-02-17T10:16:41.756Z,99887.88
2023-02-17T10:18:56.934Z,99920.59
2023-02-17T10:21:13.311Z,99902.00
2023-02-17T10:23:24.849Z,99885.28
2023-02-17T10:25:59.199Z,99884.38
2023-02-17T10:28:10.185Z,99852.22
2023-02-17T10:30:54.376Z,99914.88
2023-02-17T10:33:02.690Z,99876.00
2023-02-17T10:35:05.029Z,99906.44
2023-02-17T10:37:23.214Z,99860.31
2023-02-17T10:39:52.513Z,99846.13
2023-02-17T10:41:56.726Z,99861.38
2023-02-17T10:44:01.071Z,99836.56
2023-02-17T10:46:07.383Z,99881.41
2023-02-17T10:48:15.406Z,99848.44
2023-02-17T10:50:24.123Z,99829.31
2023-02-17T10:52:41.243Z,99835.06
2023-02-17T10:54:49.623Z,99854.47
2023-02-17T10:56:56.111Z,99834.28
2023-02-17T10:59:06.793Z,99807.63
2023-02-17T11:01:10.668Z,99792.94
2023-02-17T11:03:22.093Z,99826.13
2023-02-17T11:05:33.948Z,99824.56
2023-02-17T11:07:42.241Z,99816.56
2023-02-17T11:09:51.458Z,99818.72
2023-02-17T11:11:59.491Z,99797.09
2023-02-17T11:14:04.868Z,99820.59
2023-02-17T11:16:08.011Z,99821.31
2023-02-17T11:18:19.576Z,99811.94
2023-02-17T11:20:22.085Z,99815.78
2023-02-17T11:22:36.272Z,99783.31
2023-02-17T11:24:39.033Z,99768.72
2023-02-17T11:26:41.251Z,99791.56
2023-02-17T11:28:43.858Z,99813.50
2023-02-17T11:30:52.475Z,99784.16
2023-02-17T11:32:55.690Z,99811.34
2023-02-17T11:35:06.555Z,99770.16
2023-02-17T11:37:08.926Z,99789.06
2023-02-17T11:39:21.168Z,99772.78
2023-02-17T11:41:24.207Z,99786.69
2023-02-17T11:43:29.244Z,99753.50
2023-02-17T11:45:44.344Z,99756.72
2023-02-17T11:48:38.218Z,99770.69
2023-02-17T11:51:05.694Z,99771.41
2023-02-17T11:53:25.880Z,99755.00
2023-02-17T11:55:54.422Z,99723.97
2023-02-17T11:58:19.832Z,99750.56
2023-02-17T12:00:23.143Z,99750.25
2023-02-17T12:03:22.288Z,99748.50
2023-02-17T12:05:34.624Z,99748.91
2023-02-17T12:08:12.557Z,99721.63
2023-02-17T12:10:52.509Z,99743.19
2023-02-17T12:13:15.998Z,99742.53
2023-02-17T12:15:50.085Z,99698.41
2023-02-17T12:18:15.590Z,99681.19
2023-02-17T12:20:27.385Z,99731.97
2023-02-17T12:22:51.197Z,99719.44
2023-02-17T12:25:14.853Z,99713.81
2023-02-17T12:27:37.201Z,99705.03
2023-02-17T12:30:07.962Z,99701.88
2023-02-17T12:32:10.577Z,99700.84
2023-02-17T12:34:24.765Z,99693.03
2023-02-17T12:36:40.202Z,99640.94
2023-02-17T12:38:48.025Z,99658.53
2023-02-17T12:41:06.152Z,99644.47
2023-02-17T12:43:23.562Z,99663.44
2023-02-17T12:45:38.557Z,99623.56
2023-02-17T12:48:02.889Z,99681.63
2023-02-17T12:50:27.520Z,99679.06
2023-02-17T12:52:40.822Z,99634.72
2023-02-17T12:55:27.736Z,99588.97
2023-02-17T12:57:49.283Z,99635.53
2023-02-17T12:59:54.125Z,99638.09
2023-02-17T13:02:05.112Z,99663.69
2023-02-17T13:04:07.667Z,99628.97
2023-02-17T13:06:27.190Z,99656.75
2023-02-17T13:08:48.208Z,99651.88
2023-02-17T13:11:02.758Z,99612.97
2023-02-17T13:13:14.586Z,99627.25
2023-02-17T13:15:34.814Z,99612.44
2023-02-17T13:17:40.685Z,99590.09
2023-02-17T13:19:43.351Z,99613.84
2023-02-17T13:21:57.486Z,99600.97
2023-02-17T13:24:07.908Z,99615.28
2023-02-17T13:26:21.662Z,99613.66
2023-02-17T13:28:39.370Z,99568.69
2023-02-17T13:30:44.284Z,99583.34
2023-02-17T13:32:46.833Z,99588.28
2023-02-17T13:35:06.445Z,99580.88
2023-02-17T13:37:28.529Z,99564.50
2023-02-17T13:39:33.147Z,99553.25
2023-02-17T13:41:47.442Z,99586.88
2023-02-17T13:43:50.056Z,99551.59
2023-02-17T13:46:03.873Z,99576.69
2023-02-17T13:48:24.976Z,99566.13
2023-02-17T13:50:31.457Z,99557.94
2023-02-17T13:52:33.916Z,99568.69
2023-02-17T13:54:37.587Z,99555.91
2023-02-17T13:56:40.253Z,99497.34
2023-02-17T13:58:42.735Z,99553.47
2023-02-17T14:00:45.820Z,99565.66
2023-02-17T14:02:57.767Z,99545.97
2023-02-17T14:05:07.204Z,99558.16
2023-02-17T14:07:11.608Z,99521.81
2023-02-17T14:09:33.565Z,99534.00
2023-02-17T14:11:36.533Z,99561.44
2023-02-17T14:13:43.092Z,99525.69
2023-02-17T14:15:54.771Z,99526.75
2023-02-17T14:17:58.005Z,99529.09
2023-02-17T14:20:01.228Z,99507.75
2023-02-17T14:22:06.348Z,99524.16
2023-02-17T14:24:23.652Z,99507.16
2023-02-17T14:26:31.556Z,99490.75
2023-02-17T14:28:33.787Z,99532.97
2023-02-17T14:30:39.021Z,99538.69
2023-02-17T14:32:41.622Z,99530.38
2023-02-17T14:34:43.963Z,99506.72
2023-02-17T14:36:47.634Z,99492.75
2023-02-17T14:38:56.533Z,99444.94
2023-02-17T14:41:01.353Z,99500.97
2023-02-17T14:43:03.770Z,99505.16
2023-02-17T14:45:07.131Z,99510.56
2023-02-17T14:47:09.624Z,99490.53
2023-02-17T14:49:12.404Z,99502.97
2023-02-17T14:51:18.107Z,99450.19
2023-02-17T14:53:34.097Z,99500.94
2023-02-17T14:55:47.133Z,99462.94
2023-02-17T14:57:49.537Z,99491.88
2023-02-17T14:59:57.400Z,99456.88
2023-02-17T15:02:00.186Z,99438.22
2023-02-17T15:04:03.340Z,99429.06
2023-02-17T15:06:30.220Z,99441.16
2023-02-17T15:08:36.496Z,99452.19
2023-02-17T15:10:40.326Z,99453.59
2023-02-17T15:12:42.584Z,99428.88
2023-02-17T15:14:47.208Z,99399.34
2023-02-17T15:16:50.489Z,99409.28
2023-02-17T15:18:52.899Z,99411.63
2023-02-17T15:20:56.079Z,99437.63
2023-02-17T15:22:58.587Z,99415.63
2023-02-17T15:25:01.435Z,99380.25
2023-02-17T15:27:06.092Z,99373.69
2023-02-17T15:29:16.709Z,99385.19
2023-02-17T15:31:21.594Z,99388.44
2023-02-17T15:33:24.730Z,99431.53
2023-02-17T15:35:28.585Z,99406.94
2023-02-17T15:37:31.031Z,99389.94
2023-02-17T15:39:33.318Z,99347.63
2023-02-17T15:41:35.784Z,99387.72
2023-02-17T15:43:38.337Z,99407.28
2023-02-17T15:45:43.194Z,99398.72
2023-02-17T15:47:50.194Z,99374.97
2023-02-17T15:49:53.034Z,99371.81
2023-02-17T15:51:55.386Z,99384.22
2023-02-17T15:53:58.254Z,99347.13
2023-02-17T15:56:05.008Z,99373.38
2023-02-17T15:58:13.404Z,99412.59
2023-02-17T16:00:27.923Z,99368.78
2023-02-17T16:02:30.603Z,99351.81
2023-02-17T16:04:33.128Z,99364.81
2023-02-17T16:06:35.553Z,99356.88
2023-02-17T16:08:38.231Z,99370.31
2023-02-17T16:10:42.750Z,99326.44
2023-02-17T16:12:46.189Z,99378.19
2023-02-17T16:14:49.212Z,99348.44
2023-02-17T16:16:52.127Z,99359.44
2023-02-17T16:18:55.529Z,99323.06
2023-02-17T16:20:58.176Z,99338.50
2023-02-17T16:23:01.837Z,99316.63
2023-02-17T16:25:05.291Z,99330.19
2023-02-17T16:27:12.303Z,99331.25
2023-02-17T16:29:21.311Z,99307.16
2023-02-17T16:31:24.986Z,99268.06
2023-02-17T16:33:27.535Z,99278.03
2023-02-17T16:35:32.619Z,99310.78
2023-02-17T16:37:35.407Z,99273.56
2023-02-17T16:39:39.546Z,99305.63
2023-02-17T16:41:42.398Z,99283.06
2023-02-17T16:43:45.686Z,99330.53
2023-02-17T16:45:57.964Z,99296.03
2023-02-17T16:48:01.977Z,99293.25
2023-02-17T16:50:08.899Z,99302.34
2023-02-17T16:52:24.730Z,99288.53
2023-02-17T16:54:27.355Z,99301.19
2023-02-17T16:56:37.055Z,99257.66
2023-02-17T16:58:40.952Z,99273.56
2023-02-17T17:00:44.454Z,99309.59
2023-02-17T17:02:47.115Z,99255.31
2023-02-17T17:04:50.243Z,99292.88
2023-02-17T17:06:53.248Z,99300.38
2023-02-17T17:08:56.168Z,99265.34
2023-02-17T17:11:01.487Z,99325.97
2023-02-17T17:13:04.086Z,99294.88
2023-02-17T17:15:07.775Z,99301.66
2023-02-17T17:17:12.297Z,99291.13
2023-02-17T17:19:15.085Z,99305.75
2023-02-17T17:21:19.759Z,99266.88
2023-02-17T17:23:22.293Z,99312.78
2023-02-17T17:25:24.666Z,99284.09
2023-02-17T17:27:27.336Z,99301.88
2023-02-17T17:29:29.853Z,99308.63
2023-02-17T17:31:32.322Z,99299.41
2023-02-17T17:33:34.894Z,99286.44
2023-02-17T17:35:38.018Z,99269.00
2023-02-17T17:37:40.974Z,99276.59
2023-02-17T17:39:44.039Z,99285.97
2023-02-17T17:41:47.463Z,99293.44
2023-02-17T17:43:51.909Z,99288.41
2023-02-17T17:45:55.365Z,99321.78
2023-02-17T17:47:58.081Z,99270.03
2023-02-17T17:50:00.959Z,99264.88
2023-02-17T17:52:03.679Z,99274.38
2023-02-17T17:54:06.961Z,99290.28
2023-02-17T17:56:21.401Z,99296.00
2023-02-17T17:58:24.604Z,99303.25
2023-02-17T18:00:27.275Z,99290.06
2023-02-17T18:02:29.606Z,99302.56
2023-02-17T18:04:32.301Z,99271.44
2023-02-17T18:06:41.368Z,99293.22
2023-02-17T18:08:46.852Z,99277.28
2023-02-17T18:10:49.625Z,99238.00
2023-02-17T18:12:52.624Z,99279.16
2023-02-17T18:14:55.660Z,99321.16
2023-02-17T18:17:00.106Z,99288.88
2023-02-17T18:19:06.337Z,99294.34
2023-02-17T18:21:09.010Z,99284.09
2023-02-17T18:23:11.318Z,99288.41
2023-02-17T18:25:13.689Z,99278.72
2023-02-17T18:27:17.370Z,99295.22
2023-02-17T18:29:21.028Z,99288.06
2023-02-17T18:31:27.067Z,99281.72
2023-02-17T18:33:30.435Z,99313.81
2023-02-17T18:35:36.642Z,99298.38
2023-02-17T18:37:41.362Z,99277.31
2023-02-17T18:39:44.066Z,99327.16
2023-02-17T18:41:46.703Z,99299.31
2023-02-17T18:43:49.552Z,99301.41
2023-02-17T18:45:53.538Z,99312.31
2023-02-17T18:47:56.292Z,99306.44
2023-02-17T18:49:58.737Z,99310.06
2023-02-17T18:52:01.207Z,99346.38
2023-02-17T18:54:05.133Z,99289.81
2023-02-17T18:56:15.696Z,99324.81
2023-02-17T18:58:18.152Z,99319.19
2023-02-17T19:00:20.976Z,99339.69
2023-02-17T19:02:24.565Z,99325.31
2023-02-17T19:04:27.298Z,99314.19
2023-02-17T19:06:34.242Z,99302.34
2023-02-17T19:08:37.288Z,99290.16
2023-02-17T19:10:39.939Z,99257.63
2023-02-17T19:12:42.388Z,99295.09
2023-02-17T19:14:44.881Z,99315.19
2023-02-17T19:16:47.348Z,99297.88
2023-02-17T19:18:49.930Z,99300.22
2023-02-17T19:20:54.868Z,99295.97
2023-02-17T19:22:57.730Z,99287.09
2023-02-17T19:25:00.603Z,99326.50
2023-02-17T19:27:03.457Z,99290.13
2023-02-17T19:29:08.854Z,99300.63
2023-02-17T19:31:15.854Z,99301.56
2023-02-17T19:33:20.792Z,99327.19
2023-02-17T19:35:23.531Z,99255.22
2023-02-17T19:37:26.341Z,99289.50
2023-02-17T19:39:31.599Z,99281.97
2023-02-17T19:41:35.931Z,99283.06
2023-02-17T19:43:38.993Z,99296.97
2023-02-17T19:45:41.853Z,99248.69
2023-02-17T19:47:46.492Z,99323.97
2023-02-17T19:49:48.993Z,99311.94
2023-02-17T19:51:51.512Z,99325.75
2023-02-17T19:53:53.987Z,99300.81
2023-02-17T19:55:56.602Z,99329.44
2023-02-17T19:57:59.214Z,99298.13
2023-02-17T20:00:01.866Z,99285.13
2023-02-17T20:02:07.308Z,99312.50
2023-02-17T20:04:10.108Z,99273.47
2023-02-17T20:06:17.959Z,99286.34
2023-02-17T20:08:20.679Z,99289.34
2023-02-17T20:10:23.689Z,99319.66
2023-02-17T20:12:26.118Z,99345.50
2023-02-17T20:14:28.956Z,99284.47
2023-02-17T20:16:31.906Z,99319.31
2023-02-17T20:18:37.432Z,99289.50
2023-02-17T20:20:39.820Z,99299.31
2023-02-17T20:22:42.158Z,99306.34
2023-02-17T20:24:44.745Z,99297.22
2023-02-17T20:26:49.205Z,99268.75
2023-02-17T20:28:52.743Z,99293.53
2023-02-17T20:30:55.213Z,99249.09
2023-02-17T20:32:57.725Z,99274.78
2023-02-17T20:35:00.595Z,99292.53
2023-02-17T20:37:03.212Z,99269.13
2023-02-17T20:39:05.773Z,99301.47
2023-02-17T20:41:09.957Z,99298.16
2023-02-17T20:43:13.004Z,99270.09
2023-02-17T20:45:15.654Z,99307.03
2023-02-17T20:47:18.258Z,99292.94
2023-02-17T20:49:21.767Z,99284.91
2023-02-17T20:51:24.808Z,99299.59
2023-02-17T20:53:27.509Z,99300.84
2023-02-17T20:55:30.691Z,99284.97
2023-02-17T20:57:33.047Z,99277.88
2023-02-17T20:59:35.794Z,99308.13
2023-02-17T21:01:38.343Z,99292.88
2023-02-17T21:03:41.163Z,99312.41
2023-02-17T21:05:43.898Z,99233.66
2023-02-17T21:07:46.475Z,99311.34
2023-02-17T21:09:49.238Z,99301.41
2023-02-17T21:11:51.773Z,99274.19
2023-02-17T21:13:54.598Z,99287.41
2023-02-17T21:15:57.451Z,99271.50
2023-02-17T21:18:00.135Z,99311.28
2023-02-17T21:20:03.062Z,99276.16
2023-02-17T21:22:05.911Z,99296.56
2023-02-17T21:24:08.439Z,99313.19
2023-02-17T21:26:13.295Z,99325.72
2023-02-17T21:28:17.497Z,99322.44
2023-02-17T21:30:20.330Z,99322.16
2023-02-17T21:32:24.948Z,99313.59
2023-02-17T21:34:27.578Z,99310.59
2023-02-17T21:36:30.400Z,99308.00
2023-02-17T21:38:33.054Z,99340.81
2023-02-17T21:40:35.668Z,99312.19
2023-02-17T21:42:57.376Z,99310.84
2023-02-17T21:45:00.282Z,99315.63
2023-02-17T21:47:02.642Z,99324.84
2023-02-17T21:49:05.105Z,99336.59
2023-02-17T21:51:09.774Z,99345.84
2023-02-17T21:53:12.517Z,99345.06
2023-02-17T21:55:15.041Z,99317.38
2023-02-17T21:57:17.320Z,99313.97
2023-02-17T21:59:20.052Z,99323.00
2023-02-17T22:01:25.452Z,99318.34
2023-02-17T22:03:27.898Z,99337.94
2023-02-17T22:05:32.165Z,99345.53
2023-02-17T22:07:35.528Z,99301.53
2023-02-17T22:09:38.732Z,99341.47
2023-02-17T22:11:43.555Z,99338.03
2023-02-17T22:13:46.417Z,99326.19
2023-02-17T22:15:58.610Z,99339.78
2023-02-17T22:18:02.016Z,99336.69
2023-02-17T22:20:05.003Z,99319.63
2023-02-17T22:22:07.472Z,99355.47
2023-02-17T22:24:09.872Z,99354.91
2023-02-17T22:26:20.545Z,99331.06
2023-02-17T22:28:23.359Z,99346.31
2023-02-17T22:30:25.938Z,99328.34
2023-02-17T22:32:28.220Z,99300.28
2023-02-17T22:34:30.706Z,99321.63
2023-02-17T22:36:35.258Z,99306.16
2023-02-17T22:38:37.848Z,99309.72
2023-02-17T22:40:41.247Z,99309.22
2023-02-17T22:42:43.526Z,99305.25
2023-02-17T22:44:46.065Z,99341.50
2023-02-17T22:46:48.527Z,99332.53
2023-02-17T22:48:52.500Z,99314.97
2023-02-17T22:50:55.159Z,99311.69
2023-02-17T22:52:57.938Z,99300.59
2023-02-17T22:55:00.363Z,99312.56
2023-02-17T22:57:02.592Z,99312.56
2023-02-17T22:59:06.041Z,99267.41
2023-02-17T23:01:13.655Z,99332.94
2023-02-17T23:03:17.563Z,99288.31
2023-02-17T23:05:20.745Z,99315.53
2023-02-17T23:07:23.893Z,99284.34
2023-02-17T23:09:26.454Z,99329.44
2023-02-17T23:12:01.672Z,99330.97
2023-02-17T23:14:04.401Z,99279.47
2023-02-17T23:16:08.989Z,99292.69
2023-02-17T23:18:18.223Z,99291.84
2023-02-17T23:20:21.349Z,99290.91
2023-02-17T23:22:23.761Z,99297.03
2023-02-17T23:24:27.502Z,99267.22
2023-02-17T23:26:31.190Z,99297.22
2023-02-17T23:28:34.278Z,99311.66
2023-02-17T23:30:37.051Z,99282.38
2023-02-17T23:32:39.712Z,99301.69
2023-02-17T23:34:42.259Z,99270.66
2023-02-17T23:36:46.611Z,99309.97
2023-02-17T23:38:49.037Z,99310.50
2023-02-17T23:40:53.799Z,99327.16
2023-02-17T23:42:56.586Z,99294.13
2023-02-17T23:44:59.197Z,99305.44
2023-02-17T23:47:02.928Z,99252.56
2023-02-17T23:49:06.448Z,99300.53
2023-02-17T23:51:08.935Z,99285.63
2023-02-17T23:53:12.364Z,99302.66
2023-02-17T23:55:14.786Z,99338.06
2023-02-17T23:57:17.127Z,99272.66
2023-02-17T23:59:19.565Z,99318.94
